sensor_id;sensor_type;location;lat;lon;timestamp;P1;durP1;ratioP1;P2;durP2;ratioP2
51800;SDS011;37855;53.204;6.568;2024-03-23T00:53:01;19.70;;;5.03;;
51800;SDS011;37855;53.204;6.568;2024-03-23T00:55:27;20.45;;;4.47;;
51800;SDS011;37855;53.204;6.568;2024-03-23T00:57:52;17.13;;;4.40;;
51800;SDS011;37855;53.204;6.568;2024-03-23T01:00:18;23.73;;;4.77;;
51800;SDS011;37855;53.204;6.568;2024-03-23T01:02:44;17.30;;;4.10;;
51800;SDS011;37855;53.204;6.568;2024-03-23T01:05:09;24.50;;;5.20;;
51800;SDS011;37855;53.204;6.568;2024-03-23T01:07:35;22.52;;;4.63;;
51800;SDS011;37855;53.204;6.568;2024-03-23T01:10:00;23.57;;;4.40;;
51800;SDS011;37855;53.204;6.568;2024-03-23T01:12:26;17.80;;;4.20;;
51800;SDS011;37855;53.204;6.568;2024-03-23T01:14:52;23.85;;;5.20;;
51800;SDS011;37855;53.204;6.568;2024-03-23T01:17:17;20.60;;;4.30;;
51800;SDS011;37855;53.204;6.568;2024-03-23T01:19:43;18.02;;;3.95;;
51800;SDS011;37855;53.204;6.568;2024-03-23T01:22:08;23.17;;;5.67;;
51800;SDS011;37855;53.204;6.568;2024-03-23T01:24:37;23.90;;;4.72;;
51800;SDS011;37855;53.204;6.568;2024-03-23T01:27:03;20.30;;;4.17;;
51800;SDS011;37855;53.204;6.568;2024-03-23T01:29:29;21.02;;;5.15;;
51800;SDS011;37855;53.204;6.568;2024-03-23T01:31:54;21.70;;;4.87;;
51800;SDS011;37855;53.204;6.568;2024-03-23T01:34:20;25.75;;;4.70;;
51800;SDS011;37855;53.204;6.568;2024-03-23T01:36:46;20.27;;;4.07;;
51800;SDS011;37855;53.204;6.568;2024-03-23T01:39:12;23.55;;;5.18;;
51800;SDS011;37855;53.204;6.568;2024-03-23T01:41:39;22.73;;;4.15;;
51800;SDS011;37855;53.204;6.568;2024-03-23T01:44:07;20.88;;;4.50;;
51800;SDS011;37855;53.204;6.568;2024-03-23T01:46:42;29.40;;;4.50;;
51800;SDS011;37855;53.204;6.568;2024-03-23T01:49:08;15.20;;;4.07;;
51800;SDS011;37855;53.204;6.568;2024-03-23T01:51:34;25.50;;;4.93;;
51800;SDS011;37855;53.204;6.568;2024-03-23T01:54:01;22.08;;;4.45;;
51800;SDS011;37855;53.204;6.568;2024-03-23T01:56:29;25.05;;;5.05;;
51800;SDS011;37855;53.204;6.568;2024-03-23T01:58:55;22.67;;;4.67;;
51800;SDS011;37855;53.204;6.568;2024-03-23T02:01:21;23.52;;;5.40;;
51800;SDS011;37855;53.204;6.568;2024-03-23T02:03:46;25.90;;;5.03;;
51800;SDS011;37855;53.204;6.568;2024-03-23T02:06:12;24.40;;;4.57;;
51800;SDS011;37855;53.204;6.568;2024-03-23T02:08:37;20.00;;;3.77;;
51800;SDS011;37855;53.204;6.568;2024-03-23T02:11:04;23.80;;;5.10;;
51800;SDS011;37855;53.204;6.568;2024-03-23T02:13:29;21.83;;;4.70;;
51800;SDS011;37855;53.204;6.568;2024-03-23T02:15:56;23.23;;;4.37;;
51800;SDS011;37855;53.204;6.568;2024-03-23T02:18:22;19.95;;;4.47;;
51800;SDS011;37855;53.204;6.568;2024-03-23T02:20:48;17.70;;;4.17;;
51800;SDS011;37855;53.204;6.568;2024-03-23T02:23:14;17.38;;;4.30;;
51800;SDS011;37855;53.204;6.568;2024-03-23T02:25:40;22.17;;;4.13;;
51800;SDS011;37855;53.204;6.568;2024-03-23T02:28:06;19.55;;;4.57;;
51800;SDS011;37855;53.204;6.568;2024-03-23T02:30:31;17.70;;;4.20;;
51800;SDS011;37855;53.204;6.568;2024-03-23T02:32:57;19.08;;;4.10;;
51800;SDS011;37855;53.204;6.568;2024-03-23T02:35:22;26.10;;;4.77;;
51800;SDS011;37855;53.204;6.568;2024-03-23T02:37:48;21.27;;;4.50;;
51800;SDS011;37855;53.204;6.568;2024-03-23T02:40:15;16.37;;;4.67;;
51800;SDS011;37855;53.204;6.568;2024-03-23T02:42:41;23.00;;;4.47;;
51800;SDS011;37855;53.204;6.568;2024-03-23T02:45:07;18.70;;;3.75;;
51800;SDS011;37855;53.204;6.568;2024-03-23T02:47:32;24.80;;;4.47;;
51800;SDS011;37855;53.204;6.568;2024-03-23T02:49:58;18.77;;;3.90;;
51800;SDS011;37855;53.204;6.568;2024-03-23T02:52:24;22.05;;;4.93;;
51800;SDS011;37855;53.204;6.568;2024-03-23T02:54:50;26.70;;;4.20;;
51800;SDS011;37855;53.204;6.568;2024-03-23T02:57:15;14.32;;;3.70;;
51800;SDS011;37855;53.204;6.568;2024-03-23T02:59:41;20.97;;;4.40;;
51800;SDS011;37855;53.204;6.568;2024-03-23T03:02:07;17.93;;;3.57;;
51800;SDS011;37855;53.204;6.568;2024-03-23T03:04:32;17.83;;;4.30;;
51800;SDS011;37855;53.204;6.568;2024-03-23T03:06:58;16.17;;;4.10;;
51800;SDS011;37855;53.204;6.568;2024-03-23T03:09:24;19.27;;;3.90;;
51800;SDS011;37855;53.204;6.568;2024-03-23T03:11:49;18.00;;;3.80;;
51800;SDS011;37855;53.204;6.568;2024-03-23T03:14:15;18.73;;;3.63;;
51800;SDS011;37855;53.204;6.568;2024-03-23T03:16:40;18.53;;;3.60;;
51800;SDS011;37855;53.204;6.568;2024-03-23T03:19:06;20.98;;;4.07;;
51800;SDS011;37855;53.204;6.568;2024-03-23T03:21:32;19.63;;;3.80;;
51800;SDS011;37855;53.204;6.568;2024-03-23T03:23:57;17.20;;;3.40;;
51800;SDS011;37855;53.204;6.568;2024-03-23T03:26:23;16.47;;;4.20;;
51800;SDS011;37855;53.204;6.568;2024-03-23T03:28:49;15.40;;;3.47;;
51800;SDS011;37855;53.204;6.568;2024-03-23T03:31:15;15.48;;;3.97;;
51800;SDS011;37855;53.204;6.568;2024-03-23T03:33:41;20.90;;;3.97;;
51800;SDS011;37855;53.204;6.568;2024-03-23T03:36:07;16.25;;;4.07;;
51800;SDS011;37855;53.204;6.568;2024-03-23T03:38:33;15.70;;;3.40;;
51800;SDS011;37855;53.204;6.568;2024-03-23T03:41:02;18.70;;;3.40;;
51800;SDS011;37855;53.204;6.568;2024-03-23T03:43:27;15.73;;;3.47;;
51800;SDS011;37855;53.204;6.568;2024-03-23T03:45:57;20.57;;;3.93;;
51800;SDS011;37855;53.204;6.568;2024-03-23T03:48:24;23.25;;;4.18;;
51800;SDS011;37855;53.204;6.568;2024-03-23T03:50:49;16.95;;;3.83;;
51800;SDS011;37855;53.204;6.568;2024-03-23T03:53:15;14.63;;;4.33;;
51800;SDS011;37855;53.204;6.568;2024-03-23T03:55:41;13.73;;;3.35;;
51800;SDS011;37855;53.204;6.568;2024-03-23T03:58:07;19.10;;;3.70;;
51800;SDS011;37855;53.204;6.568;2024-03-23T04:00:32;20.30;;;3.47;;
51800;SDS011;37855;53.204;6.568;2024-03-23T04:02:58;18.48;;;3.55;;
51800;SDS011;37855;53.204;6.568;2024-03-23T04:05:24;21.33;;;4.00;;
51800;SDS011;37855;53.204;6.568;2024-03-23T04:07:49;15.20;;;3.60;;
51800;SDS011;37855;53.204;6.568;2024-03-23T04:10:15;16.98;;;3.60;;
51800;SDS011;37855;53.204;6.568;2024-03-23T04:12:41;13.63;;;3.47;;
51800;SDS011;37855;53.204;6.568;2024-03-23T04:15:08;15.60;;;3.50;;
51800;SDS011;37855;53.204;6.568;2024-03-23T04:17:34;15.23;;;3.22;;
51800;SDS011;37855;53.204;6.568;2024-03-23T04:20:00;20.43;;;4.00;;
51800;SDS011;37855;53.204;6.568;2024-03-23T04:22:26;16.98;;;3.45;;
51800;SDS011;37855;53.204;6.568;2024-03-23T04:24:56;12.87;;;3.17;;
51800;SDS011;37855;53.204;6.568;2024-03-23T04:27:22;12.77;;;3.40;;
51800;SDS011;37855;53.204;6.568;2024-03-23T04:29:48;11.93;;;3.47;;
51800;SDS011;37855;53.204;6.568;2024-03-23T04:32:15;17.35;;;3.78;;
51800;SDS011;37855;53.204;6.568;2024-03-23T04:34:41;10.35;;;3.03;;
51800;SDS011;37855;53.204;6.568;2024-03-23T04:37:06;16.70;;;3.33;;
51800;SDS011;37855;53.204;6.568;2024-03-23T04:39:32;11.52;;;2.90;;
51800;SDS011;37855;53.204;6.568;2024-03-23T04:41:58;13.18;;;3.33;;
51800;SDS011;37855;53.204;6.568;2024-03-23T04:44:24;18.73;;;3.47;;
51800;SDS011;37855;53.204;6.568;2024-03-23T04:46:49;15.27;;;3.38;;
51800;SDS011;37855;53.204;6.568;2024-03-23T04:49:15;19.10;;;3.90;;
51800;SDS011;37855;53.204;6.568;2024-03-23T04:51:41;20.30;;;5.05;;
51800;SDS011;37855;53.204;6.568;2024-03-23T04:54:11;13.57;;;3.90;;
51800;SDS011;37855;53.204;6.568;2024-03-23T04:56:37;13.50;;;3.67;;
51800;SDS011;37855;53.204;6.568;2024-03-23T04:59:02;15.90;;;2.97;;
51800;SDS011;37855;53.204;6.568;2024-03-23T05:01:30;13.50;;;2.80;;
51800;SDS011;37855;53.204;6.568;2024-03-23T05:03:56;16.10;;;3.13;;
51800;SDS011;37855;53.204;6.568;2024-03-23T05:06:22;24.58;;;3.17;;
51800;SDS011;37855;53.204;6.568;2024-03-23T05:08:48;16.55;;;3.10;;
51800;SDS011;37855;53.204;6.568;2024-03-23T05:11:14;17.73;;;3.85;;
51800;SDS011;37855;53.204;6.568;2024-03-23T05:13:40;11.43;;;2.80;;
51800;SDS011;37855;53.204;6.568;2024-03-23T05:16:06;12.95;;;2.85;;
51800;SDS011;37855;53.204;6.568;2024-03-23T05:18:33;14.45;;;3.20;;
51800;SDS011;37855;53.204;6.568;2024-03-23T05:20:59;15.88;;;3.28;;
51800;SDS011;37855;53.204;6.568;2024-03-23T05:23:25;17.47;;;3.80;;
51800;SDS011;37855;53.204;6.568;2024-03-23T05:25:51;17.70;;;3.25;;
51800;SDS011;37855;53.204;6.568;2024-03-23T05:28:17;14.63;;;2.95;;
51800;SDS011;37855;53.204;6.568;2024-03-23T05:30:43;16.30;;;3.17;;
51800;SDS011;37855;53.204;6.568;2024-03-23T05:33:09;15.35;;;3.20;;
51800;SDS011;37855;53.204;6.568;2024-03-23T05:35:34;15.90;;;3.20;;
51800;SDS011;37855;53.204;6.568;2024-03-23T05:38:00;15.80;;;3.17;;
51800;SDS011;37855;53.204;6.568;2024-03-23T05:40:26;17.77;;;3.70;;
51800;SDS011;37855;53.204;6.568;2024-03-23T05:42:52;13.63;;;3.28;;
51800;SDS011;37855;53.204;6.568;2024-03-23T05:45:18;14.60;;;3.08;;
51800;SDS011;37855;53.204;6.568;2024-03-23T05:47:44;12.63;;;3.33;;
51800;SDS011;37855;53.204;6.568;2024-03-23T05:50:10;18.13;;;3.00;;
51800;SDS011;37855;53.204;6.568;2024-03-23T05:52:37;14.57;;;3.35;;
51800;SDS011;37855;53.204;6.568;2024-03-23T05:55:04;15.40;;;3.10;;
51800;SDS011;37855;53.204;6.568;2024-03-23T05:57:30;19.90;;;2.83;;
51800;SDS011;37855;53.204;6.568;2024-03-23T05:59:56;12.93;;;2.90;;
51800;SDS011;37855;53.204;6.568;2024-03-23T06:02:22;17.80;;;3.07;;
51800;SDS011;37855;53.204;6.568;2024-03-23T06:04:48;16.23;;;3.50;;
51800;SDS011;37855;53.204;6.568;2024-03-23T06:07:14;17.27;;;3.20;;
51800;SDS011;37855;53.204;6.568;2024-03-23T06:09:40;9.40;;;2.88;;
51800;SDS011;37855;53.204;6.568;2024-03-23T06:12:06;14.80;;;3.08;;
51800;SDS011;37855;53.204;6.568;2024-03-23T06:14:33;20.33;;;2.97;;
51800;SDS011;37855;53.204;6.568;2024-03-23T06:16:59;13.00;;;2.30;;
51800;SDS011;37855;53.204;6.568;2024-03-23T06:19:25;10.35;;;2.25;;
51800;SDS011;37855;53.204;6.568;2024-03-23T06:21:52;8.98;;;2.35;;
51800;SDS011;37855;53.204;6.568;2024-03-23T06:24:23;12.15;;;2.00;;
51800;SDS011;37855;53.204;6.568;2024-03-23T06:26:49;4.85;;;1.85;;
51800;SDS011;37855;53.204;6.568;2024-03-23T06:29:15;7.33;;;2.13;;
51800;SDS011;37855;53.204;6.568;2024-03-23T06:31:40;8.87;;;1.80;;
51800;SDS011;37855;53.204;6.568;2024-03-23T06:34:06;8.38;;;2.28;;
51800;SDS011;37855;53.204;6.568;2024-03-23T06:36:32;9.63;;;2.00;;
51800;SDS011;37855;53.204;6.568;2024-03-23T06:38:58;6.72;;;1.98;;
51800;SDS011;37855;53.204;6.568;2024-03-23T06:41:24;8.95;;;2.40;;
51800;SDS011;37855;53.204;6.568;2024-03-23T06:43:50;10.53;;;2.50;;
51800;SDS011;37855;53.204;6.568;2024-03-23T06:46:15;9.98;;;2.30;;
51800;SDS011;37855;53.204;6.568;2024-03-23T06:48:44;7.63;;;2.50;;
51800;SDS011;37855;53.204;6.568;2024-03-23T06:51:10;9.50;;;2.20;;
51800;SDS011;37855;53.204;6.568;2024-03-23T06:53:36;11.57;;;2.90;;
51800;SDS011;37855;53.204;6.568;2024-03-23T06:56:01;10.00;;;3.23;;
51800;SDS011;37855;53.204;6.568;2024-03-23T06:58:27;14.20;;;2.55;;
51800;SDS011;37855;53.204;6.568;2024-03-23T07:00:53;12.07;;;3.10;;
51800;SDS011;37855;53.204;6.568;2024-03-23T07:03:18;10.57;;;2.73;;
51800;SDS011;37855;53.204;6.568;2024-03-23T07:05:44;11.40;;;2.80;;
51800;SDS011;37855;53.204;6.568;2024-03-23T07:08:11;12.35;;;2.80;;
51800;SDS011;37855;53.204;6.568;2024-03-23T07:10:40;11.20;;;2.30;;
51800;SDS011;37855;53.204;6.568;2024-03-23T07:13:05;9.48;;;2.33;;
51800;SDS011;37855;53.204;6.568;2024-03-23T07:15:31;12.10;;;2.90;;
51800;SDS011;37855;53.204;6.568;2024-03-23T07:17:57;11.23;;;3.00;;
51800;SDS011;37855;53.204;6.568;2024-03-23T07:20:22;9.52;;;2.10;;
51800;SDS011;37855;53.204;6.568;2024-03-23T07:22:48;7.60;;;3.13;;
51800;SDS011;37855;53.204;6.568;2024-03-23T07:25:14;8.82;;;2.50;;
51800;SDS011;37855;53.204;6.568;2024-03-23T07:27:39;7.67;;;2.47;;
51800;SDS011;37855;53.204;6.568;2024-03-23T07:30:05;10.77;;;2.70;;
51800;SDS011;37855;53.204;6.568;2024-03-23T07:32:32;7.37;;;2.20;;
51800;SDS011;37855;53.204;6.568;2024-03-23T07:34:58;10.82;;;3.25;;
51800;SDS011;37855;53.204;6.568;2024-03-23T07:37:24;8.70;;;2.28;;
51800;SDS011;37855;53.204;6.568;2024-03-23T07:39:50;8.25;;;2.55;;
51800;SDS011;37855;53.204;6.568;2024-03-23T07:42:16;8.13;;;2.77;;
51800;SDS011;37855;53.204;6.568;2024-03-23T07:44:42;10.03;;;2.40;;
51800;SDS011;37855;53.204;6.568;2024-03-23T07:47:07;6.77;;;2.27;;
51800;SDS011;37855;53.204;6.568;2024-03-23T07:49:33;6.20;;;2.27;;
51800;SDS011;37855;53.204;6.568;2024-03-23T07:51:58;7.53;;;2.10;;
51800;SDS011;37855;53.204;6.568;2024-03-23T07:54:24;9.17;;;2.20;;
51800;SDS011;37855;53.204;6.568;2024-03-23T07:56:49;8.18;;;1.80;;
51800;SDS011;37855;53.204;6.568;2024-03-23T07:59:15;6.93;;;1.97;;
51800;SDS011;37855;53.204;6.568;2024-03-23T08:01:41;8.93;;;2.20;;
51800;SDS011;37855;53.204;6.568;2024-03-23T08:04:06;6.75;;;2.00;;
51800;SDS011;37855;53.204;6.568;2024-03-23T08:06:32;6.23;;;1.90;;
51800;SDS011;37855;53.204;6.568;2024-03-23T08:08:58;7.53;;;2.20;;
51800;SDS011;37855;53.204;6.568;2024-03-23T08:11:27;6.88;;;2.33;;
51800;SDS011;37855;53.204;6.568;2024-03-23T08:13:54;7.80;;;2.40;;
51800;SDS011;37855;53.204;6.568;2024-03-23T08:16:20;6.10;;;2.13;;
51800;SDS011;37855;53.204;6.568;2024-03-23T08:18:46;6.18;;;2.22;;
51800;SDS011;37855;53.204;6.568;2024-03-23T08:21:11;6.20;;;1.90;;
51800;SDS011;37855;53.204;6.568;2024-03-23T08:23:37;7.68;;;1.92;;
51800;SDS011;37855;53.204;6.568;2024-03-23T08:26:04;4.72;;;1.90;;
51800;SDS011;37855;53.204;6.568;2024-03-23T08:28:35;7.50;;;2.13;;
51800;SDS011;37855;53.204;6.568;2024-03-23T08:31:02;7.35;;;1.88;;
51800;SDS011;37855;53.204;6.568;2024-03-23T08:33:28;8.63;;;2.40;;
51800;SDS011;37855;53.204;6.568;2024-03-23T08:35:55;6.47;;;2.60;;
51800;SDS011;37855;53.204;6.568;2024-03-23T08:38:25;9.63;;;2.90;;
51800;SDS011;37855;53.204;6.568;2024-03-23T08:40:58;7.40;;;2.23;;
51800;SDS011;37855;53.204;6.568;2024-03-23T08:43:25;8.55;;;2.15;;
51800;SDS011;37855;53.204;6.568;2024-03-23T08:45:51;10.68;;;3.20;;
51800;SDS011;37855;53.204;6.568;2024-03-23T08:48:19;10.90;;;2.88;;
51800;SDS011;37855;53.204;6.568;2024-03-23T08:50:58;10.02;;;2.58;;
51800;SDS011;37855;53.204;6.568;2024-03-23T08:53:26;8.93;;;2.67;;
51800;SDS011;37855;53.204;6.568;2024-03-23T08:55:54;8.48;;;2.50;;
51800;SDS011;37855;53.204;6.568;2024-03-23T08:58:20;11.35;;;2.65;;
51800;SDS011;37855;53.204;6.568;2024-03-23T09:00:46;9.97;;;2.47;;
51800;SDS011;37855;53.204;6.568;2024-03-23T09:03:12;8.93;;;2.70;;
51800;SDS011;37855;53.204;6.568;2024-03-23T09:05:40;13.45;;;3.10;;
51800;SDS011;37855;53.204;6.568;2024-03-23T09:08:06;13.13;;;2.78;;
51800;SDS011;37855;53.204;6.568;2024-03-23T09:10:34;12.63;;;2.77;;
51800;SDS011;37855;53.204;6.568;2024-03-23T09:13:03;9.52;;;2.45;;
51800;SDS011;37855;53.204;6.568;2024-03-23T09:15:29;11.50;;;2.53;;
51800;SDS011;37855;53.204;6.568;2024-03-23T09:17:54;12.13;;;2.80;;
51800;SDS011;37855;53.204;6.568;2024-03-23T09:20:20;11.48;;;2.47;;
51800;SDS011;37855;53.204;6.568;2024-03-23T09:22:47;16.43;;;2.83;;
51800;SDS011;37855;53.204;6.568;2024-03-23T09:25:13;12.38;;;2.92;;
51800;SDS011;37855;53.204;6.568;2024-03-23T09:27:39;11.75;;;2.30;;
51800;SDS011;37855;53.204;6.568;2024-03-23T09:30:05;10.87;;;2.60;;
51800;SDS011;37855;53.204;6.568;2024-03-23T09:32:31;9.35;;;2.20;;
51800;SDS011;37855;53.204;6.568;2024-03-23T09:34:56;8.43;;;2.07;;
51800;SDS011;37855;53.204;6.568;2024-03-23T09:37:25;10.00;;;2.30;;
51800;SDS011;37855;53.204;6.568;2024-03-23T09:39:51;9.97;;;2.17;;
51800;SDS011;37855;53.204;6.568;2024-03-23T09:42:17;10.40;;;2.30;;
51800;SDS011;37855;53.204;6.568;2024-03-23T09:44:43;9.25;;;2.15;;
51800;SDS011;37855;53.204;6.568;2024-03-23T09:47:10;11.05;;;2.45;;
51800;SDS011;37855;53.204;6.568;2024-03-23T09:49:37;10.97;;;2.20;;
51800;SDS011;37855;53.204;6.568;2024-03-23T09:52:03;8.70;;;2.25;;
51800;SDS011;37855;53.204;6.568;2024-03-23T09:54:30;9.68;;;2.33;;
51800;SDS011;37855;53.204;6.568;2024-03-23T09:56:58;9.07;;;2.40;;
51800;SDS011;37855;53.204;6.568;2024-03-23T09:59:23;10.23;;;2.40;;
51800;SDS011;37855;53.204;6.568;2024-03-23T10:01:51;7.90;;;2.15;;
51800;SDS011;37855;53.204;6.568;2024-03-23T10:07:12;5.40;;;1.80;;
51800;SDS011;37855;53.204;6.568;2024-03-23T10:09:43;4.90;;;1.90;;
51800;SDS011;37855;53.204;6.568;2024-03-23T10:14:41;6.72;;;1.98;;
51800;SDS011;37855;53.204;6.568;2024-03-23T10:17:11;10.82;;;2.40;;
51800;SDS011;37855;53.204;6.568;2024-03-23T10:19:39;8.67;;;2.00;;
51800;SDS011;37855;53.204;6.568;2024-03-23T10:22:08;13.07;;;2.67;;
51800;SDS011;37855;53.204;6.568;2024-03-23T10:24:34;11.48;;;2.53;;
51800;SDS011;37855;53.204;6.568;2024-03-23T10:27:00;9.80;;;2.50;;
51800;SDS011;37855;53.204;6.568;2024-03-23T10:29:25;9.70;;;2.30;;
51800;SDS011;37855;53.204;6.568;2024-03-23T10:31:55;11.02;;;2.40;;
51800;SDS011;37855;53.204;6.568;2024-03-23T10:34:33;9.57;;;2.50;;
51800;SDS011;37855;53.204;6.568;2024-03-23T10:36:58;7.73;;;2.33;;
51800;SDS011;37855;53.204;6.568;2024-03-23T10:39:26;12.77;;;2.70;;
51800;SDS011;37855;53.204;6.568;2024-03-23T10:41:52;9.80;;;2.33;;
51800;SDS011;37855;53.204;6.568;2024-03-23T10:44:21;7.13;;;2.13;;
51800;SDS011;37855;53.204;6.568;2024-03-23T10:46:50;15.07;;;2.58;;
51800;SDS011;37855;53.204;6.568;2024-03-23T10:49:15;8.13;;;1.98;;
51800;SDS011;37855;53.204;6.568;2024-03-23T10:51:41;6.27;;;2.00;;
51800;SDS011;37855;53.204;6.568;2024-03-23T10:54:07;7.10;;;2.35;;
51800;SDS011;37855;53.204;6.568;2024-03-23T10:56:38;8.30;;;2.35;;
51800;SDS011;37855;53.204;6.568;2024-03-23T10:59:05;8.70;;;2.37;;
51800;SDS011;37855;53.204;6.568;2024-03-23T11:01:33;12.35;;;2.10;;
51800;SDS011;37855;53.204;6.568;2024-03-23T11:03:58;8.40;;;2.33;;
51800;SDS011;37855;53.204;6.568;2024-03-23T11:06:37;9.70;;;2.17;;
51800;SDS011;37855;53.204;6.568;2024-03-23T11:09:03;11.35;;;1.95;;
51800;SDS011;37855;53.204;6.568;2024-03-23T11:11:49;12.52;;;3.03;;
51800;SDS011;37855;53.204;6.568;2024-03-23T11:14:21;13.20;;;2.50;;
51800;SDS011;37855;53.204;6.568;2024-03-23T11:16:50;9.57;;;2.25;;
51800;SDS011;37855;53.204;6.568;2024-03-23T11:19:37;11.82;;;2.53;;
51800;SDS011;37855;53.204;6.568;2024-03-23T11:22:03;10.10;;;2.20;;
51800;SDS011;37855;53.204;6.568;2024-03-23T11:24:31;7.60;;;2.50;;
51800;SDS011;37855;53.204;6.568;2024-03-23T11:27:00;11.02;;;2.50;;
51800;SDS011;37855;53.204;6.568;2024-03-23T11:29:40;7.30;;;2.17;;
51800;SDS011;37855;53.204;6.568;2024-03-23T11:32:07;10.77;;;2.15;;
51800;SDS011;37855;53.204;6.568;2024-03-23T11:34:35;8.88;;;2.75;;
51800;SDS011;37855;53.204;6.568;2024-03-23T11:37:04;9.50;;;2.50;;
51800;SDS011;37855;53.204;6.568;2024-03-23T11:39:34;9.43;;;2.42;;
51800;SDS011;37855;53.204;6.568;2024-03-23T11:42:03;10.95;;;3.35;;
51800;SDS011;37855;53.204;6.568;2024-03-23T11:44:29;12.07;;;2.50;;
51800;SDS011;37855;53.204;6.568;2024-03-23T11:46:54;10.83;;;2.60;;
51800;SDS011;37855;53.204;6.568;2024-03-23T11:49:32;10.77;;;2.40;;
51800;SDS011;37855;53.204;6.568;2024-03-23T11:51:58;9.03;;;2.60;;
51800;SDS011;37855;53.204;6.568;2024-03-23T11:54:26;11.15;;;2.63;;
51800;SDS011;37855;53.204;6.568;2024-03-23T11:57:04;11.43;;;2.50;;
51800;SDS011;37855;53.204;6.568;2024-03-23T11:59:37;9.93;;;2.65;;
51800;SDS011;37855;53.204;6.568;2024-03-23T12:02:08;12.00;;;2.60;;
51800;SDS011;37855;53.204;6.568;2024-03-23T12:04:36;11.33;;;2.83;;
51800;SDS011;37855;53.204;6.568;2024-03-23T12:07:15;11.27;;;2.40;;
51800;SDS011;37855;53.204;6.568;2024-03-23T12:10:04;7.75;;;2.50;;
51800;SDS011;37855;53.204;6.568;2024-03-23T12:12:31;11.05;;;2.85;;
51800;SDS011;37855;53.204;6.568;2024-03-23T12:15:06;10.60;;;2.67;;
51800;SDS011;37855;53.204;6.568;2024-03-23T12:17:33;11.30;;;2.78;;
51800;SDS011;37855;53.204;6.568;2024-03-23T12:20:02;16.17;;;2.55;;
51800;SDS011;37855;53.204;6.568;2024-03-23T12:22:29;7.72;;;2.13;;
51800;SDS011;37855;53.204;6.568;2024-03-23T12:24:55;6.50;;;2.23;;
51800;SDS011;37855;53.204;6.568;2024-03-23T12:27:21;6.82;;;2.17;;
51800;SDS011;37855;53.204;6.568;2024-03-23T12:29:46;7.85;;;2.03;;
51800;SDS011;37855;53.204;6.568;2024-03-23T12:32:15;13.20;;;2.27;;
51800;SDS011;37855;53.204;6.568;2024-03-23T12:34:41;5.22;;;2.00;;
51800;SDS011;37855;53.204;6.568;2024-03-23T12:37:07;9.43;;;2.55;;
51800;SDS011;37855;53.204;6.568;2024-03-23T12:39:33;7.32;;;2.30;;
51800;SDS011;37855;53.204;6.568;2024-03-23T12:42:00;7.57;;;1.90;;
51800;SDS011;37855;53.204;6.568;2024-03-23T12:44:28;7.00;;;2.22;;
51800;SDS011;37855;53.204;6.568;2024-03-23T12:46:54;7.65;;;2.60;;
51800;SDS011;37855;53.204;6.568;2024-03-23T12:49:20;7.70;;;1.98;;
51800;SDS011;37855;53.204;6.568;2024-03-23T12:51:48;5.33;;;2.00;;
51800;SDS011;37855;53.204;6.568;2024-03-23T12:54:22;6.82;;;2.03;;
51800;SDS011;37855;53.204;6.568;2024-03-23T12:56:49;5.80;;;1.90;;
51800;SDS011;37855;53.204;6.568;2024-03-23T12:59:14;9.40;;;2.10;;
51800;SDS011;37855;53.204;6.568;2024-03-23T13:01:44;8.65;;;2.08;;
51800;SDS011;37855;53.204;6.568;2024-03-23T13:04:10;7.20;;;2.05;;
51800;SDS011;37855;53.204;6.568;2024-03-23T13:06:36;6.77;;;1.80;;
51800;SDS011;37855;53.204;6.568;2024-03-23T13:09:01;8.40;;;2.03;;
51800;SDS011;37855;53.204;6.568;2024-03-23T13:11:28;7.70;;;2.15;;
51800;SDS011;37855;53.204;6.568;2024-03-23T13:13:54;7.60;;;2.40;;
51800;SDS011;37855;53.204;6.568;2024-03-23T13:16:20;9.33;;;2.07;;
51800;SDS011;37855;53.204;6.568;2024-03-23T13:18:46;10.07;;;2.00;;
51800;SDS011;37855;53.204;6.568;2024-03-23T13:21:11;9.23;;;2.50;;
51800;SDS011;37855;53.204;6.568;2024-03-23T13:23:37;9.32;;;2.28;;
51800;SDS011;37855;53.204;6.568;2024-03-23T13:26:05;8.10;;;2.40;;
51800;SDS011;37855;53.204;6.568;2024-03-23T13:28:30;10.82;;;2.38;;
51800;SDS011;37855;53.204;6.568;2024-03-23T13:30:56;9.97;;;2.30;;
51800;SDS011;37855;53.204;6.568;2024-03-23T13:33:31;6.30;;;1.88;;
51800;SDS011;37855;53.204;6.568;2024-03-23T13:35:59;9.65;;;2.13;;
51800;SDS011;37855;53.204;6.568;2024-03-23T13:38:25;7.27;;;2.20;;
51800;SDS011;37855;53.204;6.568;2024-03-23T13:40:57;8.13;;;2.30;;
51800;SDS011;37855;53.204;6.568;2024-03-23T13:43:27;10.05;;;2.28;;
51800;SDS011;37855;53.204;6.568;2024-03-23T13:45:56;11.50;;;2.35;;
51800;SDS011;37855;53.204;6.568;2024-03-23T13:48:23;8.57;;;2.20;;
51800;SDS011;37855;53.204;6.568;2024-03-23T13:50:57;8.10;;;2.45;;
51800;SDS011;37855;53.204;6.568;2024-03-23T13:53:26;6.93;;;1.90;;
51800;SDS011;37855;53.204;6.568;2024-03-23T13:55:52;8.90;;;2.10;;
51800;SDS011;37855;53.204;6.568;2024-03-23T13:58:18;6.97;;;2.23;;
51800;SDS011;37855;53.204;6.568;2024-03-23T14:00:43;8.40;;;2.05;;
51800;SDS011;37855;53.204;6.568;2024-03-23T14:03:11;10.00;;;1.97;;
51800;SDS011;37855;53.204;6.568;2024-03-23T14:06:17;11.80;;;1.92;;
51800;SDS011;37855;53.204;6.568;2024-03-23T14:08:56;10.90;;;2.47;;
51800;SDS011;37855;53.204;6.568;2024-03-23T14:11:22;5.87;;;2.27;;
51800;SDS011;37855;53.204;6.568;2024-03-23T14:13:47;9.20;;;1.90;;
51800;SDS011;37855;53.204;6.568;2024-03-23T14:16:13;9.80;;;2.00;;
51800;SDS011;37855;53.204;6.568;2024-03-23T14:18:39;7.87;;;1.80;;
51800;SDS011;37855;53.204;6.568;2024-03-23T14:21:04;6.63;;;1.80;;
51800;SDS011;37855;53.204;6.568;2024-03-23T14:23:30;9.13;;;2.20;;
51800;SDS011;37855;53.204;6.568;2024-03-23T14:25:59;6.90;;;2.15;;
51800;SDS011;37855;53.204;6.568;2024-03-23T14:28:28;5.32;;;1.80;;
51800;SDS011;37855;53.204;6.568;2024-03-23T14:30:55;7.57;;;2.67;;
51800;SDS011;37855;53.204;6.568;2024-03-23T14:33:21;6.50;;;2.10;;
51800;SDS011;37855;53.204;6.568;2024-03-23T14:35:56;9.02;;;2.33;;
51800;SDS011;37855;53.204;6.568;2024-03-23T14:38:22;11.98;;;2.33;;
51800;SDS011;37855;53.204;6.568;2024-03-23T14:40:48;9.10;;;2.10;;
51800;SDS011;37855;53.204;6.568;2024-03-23T14:43:14;10.18;;;2.03;;
51800;SDS011;37855;53.204;6.568;2024-03-23T14:48:42;10.75;;;2.30;;
51800;SDS011;37855;53.204;6.568;2024-03-23T14:51:12;12.87;;;2.53;;
51800;SDS011;37855;53.204;6.568;2024-03-23T14:53:39;10.93;;;2.38;;
51800;SDS011;37855;53.204;6.568;2024-03-23T14:56:05;9.25;;;2.40;;
51800;SDS011;37855;53.204;6.568;2024-03-23T14:58:32;12.32;;;2.90;;
51800;SDS011;37855;53.204;6.568;2024-03-23T15:01:03;13.47;;;2.37;;
51800;SDS011;37855;53.204;6.568;2024-03-23T15:03:30;14.18;;;2.20;;
51800;SDS011;37855;53.204;6.568;2024-03-23T15:05:56;11.43;;;2.70;;
51800;SDS011;37855;53.204;6.568;2024-03-23T15:08:26;9.30;;;2.40;;
51800;SDS011;37855;53.204;6.568;2024-03-23T15:10:53;11.87;;;2.10;;
51800;SDS011;37855;53.204;6.568;2024-03-23T15:13:18;5.65;;;1.50;;
51800;SDS011;37855;53.204;6.568;2024-03-23T15:15:44;6.97;;;1.87;;
51800;SDS011;37855;53.204;6.568;2024-03-23T15:18:10;7.55;;;2.35;;
51800;SDS011;37855;53.204;6.568;2024-03-23T15:20:37;7.38;;;2.08;;
51800;SDS011;37855;53.204;6.568;2024-03-23T15:23:04;6.85;;;2.05;;
51800;SDS011;37855;53.204;6.568;2024-03-23T15:25:29;9.80;;;2.20;;
51800;SDS011;37855;53.204;6.568;2024-03-23T15:27:56;10.65;;;2.00;;
51800;SDS011;37855;53.204;6.568;2024-03-23T15:30:23;9.68;;;2.50;;
51800;SDS011;37855;53.204;6.568;2024-03-23T15:32:48;13.50;;;2.60;;
51800;SDS011;37855;53.204;6.568;2024-03-23T15:35:14;16.75;;;3.38;;
51800;SDS011;37855;53.204;6.568;2024-03-23T15:37:39;11.57;;;2.83;;
51800;SDS011;37855;53.204;6.568;2024-03-23T15:40:06;12.07;;;2.42;;